Time;durP1;ratioP1;P1;durP2;ratioP2;P2;SDS_P1;SDS_P2;PMS_P1;PMS_P2;Temp;Humidity;BMP_temperature;BMP_pressure;BME280_temperature;BME280_humidity;BME280_pressure;Samples;Min_cycle;Max_cycle;Signal;HPM_P1;HPM_P2
2022/09/22 00:00:31;;;;;;;;;;;;;;;11.77;61.12;99119.81;5054149;28;19920;-51
2022/09/22 00:02:59;;;;;;;;;;;;;;;11.64;60.83;99122.38;5054190;28;19974;-51
2022/09/22 00:05:25;;;;;;;;;;;;;;;11.64;61.12;99114.50;5072072;28;19923;-51
2022/09/22 00:07:52;;;;;;;;;;;;;;;11.63;61.12;99106.78;5053974;28;19916;-51
2022/09/22 00:10:20;;;;;;;;;;;;;;;11.68;61.07;99102.56;5072764;28;20060;-51
2022/09/22 00:12:48;;;;;;;;;;;;;;;11.62;61.27;99103.34;5076165;28;20014;-51
2022/09/22 00:15:14;;;;;;;;;;;;;;;11.59;61.26;99104.56;5076103;28;19963;-51
2022/09/22 00:17:40;;;;;;;;;;;;;;;11.58;61.09;99108.19;5076152;28;19963;-51
2022/09/22 00:20:05;;;;;;;;;;;;;;;11.54;61.43;99106.16;5057900;28;19967;-51
2022/09/22 00:22:32;;;;;;;;;;;;;;;11.54;61.29;99106.97;5076080;28;20022;-51
2022/09/22 00:24:58;;;;;;;;;;;;;;;11.41;61.31;99106.91;5075975;28;19917;-51
2022/09/22 00:27:24;;;;;;;;;;;;;;;11.30;61.52;99107.47;5075882;28;20297;-51
2022/09/22 00:29:50;;;;;;;;;;;;;;;11.35;61.49;99103.25;5075786;28;19916;-51
2022/09/22 00:32:17;;;;;;;;;;;;;;;11.33;61.78;99107.09;5075615;28;20414;-51
2022/09/22 00:34:42;;;;;;;;;;;;;;;11.40;61.79;99102.66;5075782;28;19920;-50
2022/09/22 00:37:08;;;;;;;;;;;;;;;11.46;61.52;99106.31;5057624;28;19924;-51
2022/09/22 00:39:33;;;;;;;;;;;;;;;11.36;61.33;99102.22;5075651;28;20342;-51
2022/09/22 00:41:58;;;;;;;;;;;;;;;11.29;61.64;99104.03;5057633;28;19920;-51
2022/09/22 00:44:38;;;;;;;;;;;;;;;11.22;61.94;99097.91;5075541;28;19916;-50
2022/09/22 00:47:26;;;;;;;;;;;;;;;11.14;62.06;99098.88;5057446;28;20336;-50
2022/09/22 00:50:02;;;;;;;;;;;;;;;11.15;62.20;99100.53;5067053;28;19924;-50
2022/09/22 00:52:30;;;;;;;;;;;;;;;11.19;61.80;99103.56;5075364;28;19916;-51
2022/09/22 00:54:57;;;;;;;;;;;;;;;11.25;62.25;99100.16;5057375;28;19920;-51
2022/09/22 00:57:25;;;;;;;;;;;;;;;11.39;61.66;99112.38;5057259;28;20398;-50
2022/09/22 00:59:51;;;;;;;;;;;;;;;11.40;61.73;99106.09;5057555;28;19924;-51
2022/09/22 01:02:17;;;;;;;;;;;;;;;11.19;62.79;99100.94;5075208;28;19970;-51
2022/09/22 01:04:43;;;;;;;;;;;;;;;10.90;63.53;99110.66;5057209;28;19928;-51
2022/09/22 01:07:09;;;;;;;;;;;;;;;10.66;65.39;99109.25;5075148;28;19917;-50
2022/09/22 01:09:35;;;;;;;;;;;;;;;10.34;67.28;99108.00;5075293;28;19917;-49
2022/09/22 01:12:01;;;;;;;;;;;;;;;10.08;67.95;99116.38;5075005;28;20394;-50
2022/09/22 01:14:39;;;;;;;;;;;;;;;9.88;70.20;99116.16;5057038;28;19917;-50
2022/09/22 01:17:23;;;;;;;;;;;;;;;9.80;70.50;99120.53;5056966;28;20390;-50
2022/09/22 01:20:08;;;;;;;;;;;;;;;9.77;71.28;99120.91;5056889;28;19968;-51
2022/09/22 01:22:52;;;;;;;;;;;;;;;9.67;72.08;99116.97;5056789;28;20386;-50
2022/09/22 01:25:36;;;;;;;;;;;;;;;9.63;72.31;99119.13;5074770;28;20022;-49
2022/09/22 01:28:20;;;;;;;;;;;;;;;9.73;72.60;99122.25;5056667;28;19924;-50
2022/09/22 01:30:56;;;;;;;;;;;;;;;9.70;72.89;99119.19;5074192;28;20486;-51
2022/09/22 01:33:40;;;;;;;;;;;;;;;9.60;72.81;99119.50;5074667;28;19943;-50
2022/09/22 01:36:05;;;;;;;;;;;;;;;9.55;73.41;99116.59;5074607;28;19916;-50
2022/09/22 01:38:49;;;;;;;;;;;;;;;9.56;73.07;99126.09;5056601;28;20397;-50
2022/09/22 01:41:33;;;;;;;;;;;;;;;9.51;73.12;99120.59;5074437;28;19922;-50
2022/09/22 01:44:02;;;;;;;;;;;;;;;9.41;73.58;99120.88;5056451;28;19917;-50
2022/09/22 01:46:33;;;;;;;;;;;;;;;9.41;73.96;99115.63;5056458;28;19916;-50
2022/09/22 01:49:01;;;;;;;;;;;;;;;9.37;73.69;99127.47;5074366;28;19924;-51
2022/09/22 01:51:29;;;;;;;;;;;;;;;9.31;74.17;99122.94;5056322;28;19917;-51
2022/09/22 01:54:15;;;;;;;;;;;;;;;9.43;74.74;99124.13;5056310;28;20028;-50
2022/09/22 01:56:45;;;;;;;;;;;;;;;9.62;74.96;99120.13;5056299;28;19955;-50
2022/09/22 01:59:11;;;;;;;;;;;;;;;9.69;74.80;99118.38;5074191;28;19928;-50
2022/09/22 02:01:39;;;;;;;;;;;;;;;9.76;75.01;99108.81;5074147;28;19916;-50
2022/09/22 02:04:08;;;;;;;;;;;;;;;9.82;74.82;99119.53;5074091;28;19917;-50
2022/09/22 02:06:36;;;;;;;;;;;;;;;9.85;74.13;99116.56;5056248;28;19916;-50
2022/09/22 02:09:05;;;;;;;;;;;;;;;9.87;74.21;99111.94;5073924;28;20413;-51
2022/09/22 02:11:31;;;;;;;;;;;;;;;9.94;74.09;99105.78;5073986;28;20448;-50
2022/09/22 02:13:56;;;;;;;;;;;;;;;10.02;73.97;99104.03;5055931;28;19920;-51
2022/09/22 02:16:23;;;;;;;;;;;;;;;10.05;73.22;99106.28;5055884;28;20279;-50
2022/09/22 02:18:51;;;;;;;;;;;;;;;10.06;72.34;99100.03;5073823;28;19957;-51
2022/09/22 02:21:17;;;;;;;;;;;;;;;10.06;72.72;99103.47;5055821;28;19917;-51
2022/09/22 02:23:43;;;;;;;;;;;;;;;10.07;72.68;99099.84;5055766;28;19917;-51
2022/09/22 02:26:10;;;;;;;;;;;;;;;10.01;72.70;99095.34;5055675;28;19923;-51
2022/09/22 02:28:37;;;;;;;;;;;;;;;9.96;72.58;99102.94;5073531;28;19924;-50
2022/09/22 02:31:05;;;;;;;;;;;;;;;9.82;72.62;99098.56;5055320;28;20008;-51
2022/09/22 02:33:33;;;;;;;;;;;;;;;9.74;72.96;99100.31;5072936;28;19917;-51
2022/09/22 02:36:11;;;;;;;;;;;;;;;9.65;73.22;99095.38;5055417;28;20508;-51
2022/09/22 02:38:56;;;;;;;;;;;;;;;9.56;72.66;99097.28;5055542;28;20422;-50
2022/09/22 02:41:40;;;;;;;;;;;;;;;9.42;72.52;99098.09;5055427;28;19932;-51
2022/09/22 02:44:08;;;;;;;;;;;;;;;9.29;72.70;99096.13;5055261;28;19932;-51
2022/09/22 02:46:34;;;;;;;;;;;;;;;9.19;72.45;99097.22;5073240;28;19970;-50
2022/09/22 02:49:02;;;;;;;;;;;;;;;9.14;72.75;99094.34;5073153;28;19925;-50
2022/09/22 02:51:28;;;;;;;;;;;;;;;9.08;72.53;99102.09;5073179;28;19920;-50
2022/09/22 02:53:54;;;;;;;;;;;;;;;9.03;73.19;99099.19;5055199;28;20022;-50
2022/09/22 02:56:19;;;;;;;;;;;;;;;8.98;73.31;99103.16;5073002;28;19990;-50
2022/09/22 02:58:44;;;;;;;;;;;;;;;8.95;73.09;99098.31;5055149;28;20275;-51
2022/09/22 03:01:10;;;;;;;;;;;;;;;8.87;73.36;99100.97;5072974;28;19962;-50
2022/09/22 03:03:35;;;;;;;;;;;;;;;8.82;73.61;99105.97;5055093;28;19920;-51
2022/09/22 03:06:01;;;;;;;;;;;;;;;8.84;73.84;99106.59;5072895;28;19924;-50
2022/09/22 03:08:26;;;;;;;;;;;;;;;8.84;73.74;99103.97;5054841;28;19970;-51
2022/09/22 03:10:53;;;;;;;;;;;;;;;8.88;73.68;99099.19;5054818;28;20015;-51
2022/09/22 03:13:18;;;;;;;;;;;;;;;8.85;73.40;99105.59;5072700;28;19967;-51
2022/09/22 03:15:44;;;;;;;;;;;;;;;8.84;73.72;99108.41;5054785;28;19956;-51
2022/09/22 03:18:10;;;;;;;;;;;;;;;8.80;73.54;99110.56;5054707;28;19923;-50
2022/09/22 03:20:35;;;;;;;;;;;;;;;8.76;73.56;99111.91;5054725;28;20003;-51
2022/09/22 03:23:00;;;;;;;;;;;;;;;8.70;73.90;99108.19;5054580;28;19927;-50
2022/09/22 03:25:26;;;;;;;;;;;;;;;8.66;74.07;99103.50;5072536;28;20353;-50
2022/09/22 03:27:51;;;;;;;;;;;;;;;8.62;73.64;99110.06;5072415;28;19920;-50
2022/09/22 03:30:17;;;;;;;;;;;;;;;8.58;73.64;99109.59;5072161;28;19944;-50
2022/09/22 03:32:42;;;;;;;;;;;;;;;8.67;73.91;99108.56;5072524;28;19921;-49
2022/09/22 03:35:08;;;;;;;;;;;;;;;9.00;74.46;99106.41;5072396;28;19917;-50
2022/09/22 03:37:33;;;;;;;;;;;;;;;9.33;74.10;99107.88;5072645;28;19917;-50
2022/09/22 03:39:59;;;;;;;;;;;;;;;9.56;73.61;99105.16;5072343;28;20409;-50
2022/09/22 03:42:24;;;;;;;;;;;;;;;9.79;73.37;99095.31;5072346;28;19999;-50
2022/09/22 03:44:50;;;;;;;;;;;;;;;9.93;73.02;99096.28;5053408;28;20389;-50
2022/09/22 03:47:15;;;;;;;;;;;;;;;9.96;72.41;99085.44;5072268;28;20415;-51
2022/09/22 03:49:44;;;;;;;;;;;;;;;9.99;71.66;99086.84;5072213;28;19948;-49
2022/09/22 03:52:09;;;;;;;;;;;;;;;9.96;71.20;99088.06;5072255;28;19917;-49
2022/09/22 03:54:35;;;;;;;;;;;;;;;9.75;70.25;99085.41;5054224;28;19923;-48
2022/09/22 03:57:02;;;;;;;;;;;;;;;9.43;69.86;99082.19;5072141;28;20003;-48
2022/09/22 03:59:27;;;;;;;;;;;;;;;9.24;70.62;99083.59;5054169;28;19916;-49
2022/09/22 04:01:52;;;;;;;;;;;;;;;9.13;71.28;99079.59;5072084;28;19966;-49
2022/09/22 04:04:18;;;;;;;;;;;;;;;9.03;70.98;99086.91;5072163;28;19917;-50
2022/09/22 04:06:43;;;;;;;;;;;;;;;8.88;71.62;99080.88;5054055;28;20003;-50
2022/09/22 04:09:09;;;;;;;;;;;;;;;8.79;72.19;99078.34;5071959;28;20340;-51
2022/09/22 04:11:37;;;;;;;;;;;;;;;8.74;72.03;99083.28;5054065;28;20337;-51
2022/09/22 04:14:03;;;;;;;;;;;;;;;8.70;72.33;99081.22;5072064;28;19962;-50
2022/09/22 04:16:30;;;;;;;;;;;;;;;8.59;72.55;99077.22;5071986;28;20341;-50
2022/09/22 04:18:55;;;;;;;;;;;;;;;8.53;72.50;99081.38;5071965;28;19924;-51
2022/09/22 04:21:20;;;;;;;;;;;;;;;8.44;73.30;99071.97;5071967;28;19920;-51
2022/09/22 04:23:46;;;;;;;;;;;;;;;8.44;73.37;99081.63;5071971;28;19917;-50
2022/09/22 04:26:11;;;;;;;;;;;;;;;8.34;73.22;99077.41;5071905;28;19963;-51
2022/09/22 04:28:37;;;;;;;;;;;;;;;8.29;73.41;99087.59;5053810;28;19916;-50
2022/09/22 04:31:02;;;;;;;;;;;;;;;8.24;73.51;99087.28;5053590;28;19932;-51
2022/09/22 04:33:27;;;;;;;;;;;;;;;8.15;74.03;99086.53;5053870;28;19978;-51
2022/09/22 04:35:53;;;;;;;;;;;;;;;8.10;74.35;99091.47;5053821;28;20394;-50
2022/09/22 04:38:18;;;;;;;;;;;;;;;8.08;74.09;99095.25;5053842;28;19916;-51
2022/09/22 04:40:44;;;;;;;;;;;;;;;8.08;74.42;99093.44;5071725;28;19917;-51
2022/09/22 04:43:10;;;;;;;;;;;;;;;8.08;74.13;99092.63;5071728;28;19921;-50
2022/09/22 04:45:36;;;;;;;;;;;;;;;8.13;74.30;99098.13;5053693;28;20297;-51
2022/09/22 04:48:01;;;;;;;;;;;;;;;8.12;73.87;99079.03;5071584;28;19917;-50
2022/09/22 04:50:27;;;;;;;;;;;;;;;8.16;73.82;99101.22;5053673;28;20075;-52
2022/09/22 04:52:54;;;;;;;;;;;;;;;8.12;73.62;99097.34;5071702;28;19924;-52
2022/09/22 04:55:20;;;;;;;;;;;;;;;8.11;73.93;99087.88;5071626;28;19959;-52
2022/09/22 04:57:48;;;;;;;;;;;;;;;8.14;73.60;99095.34;5074583;28;19971;-48
2022/09/22 05:00:14;;;;;;;;;;;;;;;8.12;73.47;99094.72;5075298;28;19916;-52
2022/09/22 05:02:39;;;;;;;;;;;;;;;8.09;73.06;99097.69;5057651;28;19916;-50
2022/09/22 05:05:05;;;;;;;;;;;;;;;8.08;73.73;99092.63;5075134;28;19917;-50
2022/09/22 05:07:31;;;;;;;;;;;;;;;8.13;73.67;99101.59;5075147;28;19967;-50
2022/09/22 05:09:56;;;;;;;;;;;;;;;8.15;73.86;99090.97;5075058;28;20340;-51
2022/09/22 05:12:21;;;;;;;;;;;;;;;8.19;73.69;99094.84;5075008;28;19942;-49
2022/09/22 05:14:47;;;;;;;;;;;;;;;8.21;73.52;99105.94;5057065;28;19965;-51
2022/09/22 05:17:13;;;;;;;;;;;;;;;8.31;72.90;99100.47;5056925;28;19939;-51
2022/09/22 05:19:39;;;;;;;;;;;;;;;8.49;72.71;99101.03;5074945;28;19916;-49
2022/09/22 05:22:05;;;;;;;;;;;;;;;8.68;72.74;99101.50;5074891;28;20400;-50
2022/09/22 05:24:31;;;;;;;;;;;;;;;9.18;73.28;99105.25;5056904;28;20337;-49
2022/09/22 05:26:57;;;;;;;;;;;;;;;9.59;71.95;99104.75;5074701;28;19948;-50
2022/09/22 05:29:24;;;;;;;;;;;;;;;9.94;71.57;99111.03;5057030;28;19925;-49
2022/09/22 05:31:50;;;;;;;;;;;;;;;10.12;69.96;99104.53;5074527;28;20511;-48
2022/09/22 05:34:15;;;;;;;;;;;;;;;9.88;68.61;99106.53;5074662;28;19928;-48
2022/09/22 05:36:41;;;;;;;;;;;;;;;9.59;68.80;99102.16;5074725;28;20302;-50
2022/09/22 05:39:07;;;;;;;;;;;;;;;9.87;69.23;99102.25;5074514;28;19916;-50
2022/09/22 05:41:32;;;;;;;;;;;;;;;10.29;68.31;99100.66;5074531;28;20357;-51
2022/09/22 05:43:58;;;;;;;;;;;;;;;10.69;67.35;99103.66;5074520;28;19920;-51
2022/09/22 05:46:23;;;;;;;;;;;;;;;10.94;65.61;99105.84;5074484;28;19922;-51
2022/09/22 05:48:48;;;;;;;;;;;;;;;11.09;65.02;99097.88;5074358;28;20014;-51
2022/09/22 05:51:14;;;;;;;;;;;;;;;11.33;63.82;99096.56;5056399;28;20015;-49
2022/09/22 05:53:39;;;;;;;;;;;;;;;11.19;63.54;99093.88;5074336;28;19967;-49
2022/09/22 05:56:05;;;;;;;;;;;;;;;10.97;63.48;99094.97;5074252;28;20379;-50
2022/09/22 05:58:30;;;;;;;;;;;;;;;10.75;63.58;99099.47;5074277;28;19916;-49
2022/09/22 06:00:59;;;;;;;;;;;;;;;10.63;63.51;99098.34;5056167;28;19916;-50
2022/09/22 06:03:25;;;;;;;;;;;;;;;10.35;63.34;99099.94;5074158;28;20393;-50
2022/09/22 06:05:50;;;;;;;;;;;;;;;10.11;63.81;99100.28;5074080;28;19952;-49
2022/09/22 06:08:16;;;;;;;;;;;;;;;10.06;64.79;99107.88;5073260;28;19920;-50
2022/09/22 06:10:44;;;;;;;;;;;;;;;10.27;64.90;99102.66;5074034;28;20389;-49
2022/09/22 06:13:10;;;;;;;;;;;;;;;11.00;64.47;99108.50;5073967;28;19917;-50
2022/09/22 06:15:37;;;;;;;;;;;;;;;11.75;62.02;99102.59;5055892;28;20405;-48
2022/09/22 06:18:05;;;;;;;;;;;;;;;12.30;60.66;99092.81;5074031;28;19925;-49
2022/09/22 06:20:31;;;;;;;;;;;;;;;12.92;58.25;99093.41;5073792;28;19917;-49
2022/09/22 06:22:56;;;;;;;;;;;;;;;13.21;56.51;99091.31;5073797;28;19916;-48
2022/09/22 06:25:22;;;;;;;;;;;;;;;13.61;56.63;99091.19;5055665;28;19921;-49
2022/09/22 06:27:58;;;;;;;;;;;;;;;13.85;55.20;99102.84;5073656;28;19917;-49
2022/09/22 06:30:24;;;;;;;;;;;;;;;13.89;55.02;99105.88;5073257;28;19935;-50
2022/09/22 06:32:52;;;;;;;;;;;;;;;14.02;54.44;99094.44;5055579;28;19924;-50
2022/09/22 06:35:18;;;;;;;;;;;;;;;14.02;53.94;99100.50;5073439;28;20418;-51
2022/09/22 06:37:44;;;;;;;;;;;;;;;14.15;54.62;99108.38;5073432;28;19916;-48
2022/09/22 06:40:09;;;;;;;;;;;;;;;14.34;53.74;99114.53;5073664;28;19912;-50
2022/09/22 06:42:35;;;;;;;;;;;;;;;14.63;54.19;99107.03;5073619;28;19920;-50
2022/09/22 06:45:02;;;;;;;;;;;;;;;14.91;53.01;99111.03;5055309;28;20302;-49
2022/09/22 06:47:28;;;;;;;;;;;;;;;15.23;52.94;99119.69;5073206;28;19917;-51
2022/09/22 06:49:53;;;;;;;;;;;;;;;15.84;52.61;99110.03;5073111;28;19917;-50
2022/09/22 06:52:19;;;;;;;;;;;;;;;16.76;50.97;99103.53;5073122;28;19928;-49
2022/09/22 06:54:45;;;;;;;;;;;;;;;17.87;48.69;99106.16;5055134;28;19952;-50
2022/09/22 06:57:11;;;;;;;;;;;;;;;18.99;47.01;99094.94;5073255;28;20386;-49
2022/09/22 06:59:37;;;;;;;;;;;;;;;19.80;44.81;99099.66;5072972;28;19916;-49
2022/09/22 07:02:06;;;;;;;;;;;;;;;20.33;44.12;99101.50;5072947;28;19921;-50
2022/09/22 07:04:32;;;;;;;;;;;;;;;20.69;43.36;99106.34;5072938;28;19989;-50
2022/09/22 07:06:57;;;;;;;;;;;;;;;20.68;43.74;99104.75;5072802;28;20460;-50
2022/09/22 07:09:23;;;;;;;;;;;;;;;21.02;42.68;99093.75;5072812;28;19916;-51
2022/09/22 07:11:49;;;;;;;;;;;;;;;21.59;42.46;99097.47;5072688;28;20381;-49
2022/09/22 07:14:14;;;;;;;;;;;;;;;21.97;41.00;99106.13;5072960;28;19917;-50
2022/09/22 07:16:40;;;;;;;;;;;;;;;22.19;39.74;99103.22;5072746;28;20290;-48
2022/09/22 07:19:05;;;;;;;;;;;;;;;22.41;39.98;99109.13;5054578;28;19966;-48
2022/09/22 07:21:36;;;;;;;;;;;;;;;23.18;39.16;99106.38;5054827;28;20410;-48
2022/09/22 07:24:03;;;;;;;;;;;;;;;23.90;38.34;99104.19;5072659;28;19916;-47
2022/09/22 07:26:31;;;;;;;;;;;;;;;24.19;38.45;99103.47;5072572;28;20007;-47
2022/09/22 07:29:01;;;;;;;;;;;;;;;24.59;37.47;99101.56;5072765;28;19916;-48
2022/09/22 07:31:29;;;;;;;;;;;;;;;24.66;36.23;99101.22;5054328;28;20007;-48
2022/09/22 07:33:55;;;;;;;;;;;;;;;24.67;36.25;99100.13;5072481;28;19916;-48
2022/09/22 07:36:21;;;;;;;;;;;;;;;24.99;36.84;99104.09;5072437;28;20033;-49
2022/09/22 07:38:48;;;;;;;;;;;;;;;25.56;36.43;99104.28;5072390;28;19924;-49
2022/09/22 07:41:18;;;;;;;;;;;;;;;25.50;35.15;99106.22;5054385;28;19916;-49
2022/09/22 07:43:44;;;;;;;;;;;;;;;25.27;34.55;99099.78;5072349;28;19967;-48
2022/09/22 07:46:11;;;;;;;;;;;;;;;25.24;35.13;99098.47;5072630;28;19948;-48
2022/09/22 07:48:37;;;;;;;;;;;;;;;25.50;35.42;99098.97;5072241;28;20437;-47
2022/09/22 07:51:04;;;;;;;;;;;;;;;26.06;35.00;99105.47;5072500;28;20004;-48
2022/09/22 07:53:30;;;;;;;;;;;;;;;26.31;34.71;99098.88;5072415;28;20296;-50
2022/09/22 07:56:00;;;;;;;;;;;;;;;25.69;34.33;99098.97;5072234;28;19982;-50
2022/09/22 07:58:26;;;;;;;;;;;;;;;24.66;35.22;99112.75;5072566;28;19920;-49
2022/09/22 08:00:52;;;;;;;;;;;;;;;24.03;35.68;99105.44;5054097;28;19970;-48
2022/09/22 08:03:17;;;;;;;;;;;;;;;23.39;35.87;99109.78;5072176;28;20028;-50
2022/09/22 08:05:45;;;;;;;;;;;;;;;23.06;37.44;99108.53;5072091;28;20422;-50
2022/09/22 08:08:11;;;;;;;;;;;;;;;23.44;37.15;99109.78;5072008;28;19948;-48
2022/09/22 08:10:37;;;;;;;;;;;;;;;23.29;36.90;99113.28;5072044;28;20377;-48
2022/09/22 08:13:03;;;;;;;;;;;;;;;;;;5072144;28;19921;-47
2022/09/22 08:15:29;;;;;;;;;;;;;;;22.31;36.82;99109.94;5072030;28;20382;-48
2022/09/22 08:17:56;;;;;;;;;;;;;;;21.33;37.59;99105.38;5072004;28;19963;-49
2022/09/22 08:20:24;;;;;;;;;;;;;;;21.07;38.51;99107.94;5072002;28;19940;-49
2022/09/22 08:22:52;;;;;;;;;;;;;;;21.18;38.42;99114.09;5072000;28;19920;-47
2022/09/22 08:25:18;;;;;;;;;;;;;;;21.16;38.99;99102.88;5071948;28;19928;-47
2022/09/22 08:27:43;;;;;;;;;;;;;;;21.41;38.60;99112.91;5053876;28;19917;-47
2022/09/22 08:30:10;;;;;;;;;;;;;;;21.87;38.64;99113.06;5071533;28;19916;-49
2022/09/22 08:32:37;;;;;;;;;;;;;;;21.82;38.45;99115.72;5074726;28;19927;-49
2022/09/22 08:35:03;;;;;;;;;;;;;;;22.33;37.49;99113.16;5075768;28;19971;-49
2022/09/22 08:37:31;;;;;;;;;;;;;;;22.35;36.97;99107.53;5075752;28;19924;-49
2022/09/22 08:39:57;;;;;;;;;;;;;;;22.29;36.61;99111.28;5075706;28;20358;-49
2022/09/22 08:42:23;;;;;;;;;;;;;;;23.37;36.50;99113.81;5075627;28;19927;-49
2022/09/22 08:45:15;;;;;;;;;;;;;;;23.85;34.68;99111.47;5075575;28;19916;-48
2022/09/22 08:53:31;;;;;;;;;;;;;;;24.18;34.16;99095.69;5075513;28;19965;-49
2022/09/22 08:56:28;;;;;;;;;;;;;;;24.07;34.39;99087.72;5075349;28;19917;-47
2022/09/22 08:59:11;;;;;;;;;;;;;;;24.12;34.54;99101.06;5013352;28;19932;-48
2022/09/22 09:01:37;;;;;;;;;;;;;;;24.02;34.48;99095.78;5013409;28;19917;-49
2022/09/22 09:04:13;;;;;;;;;;;;;;;24.23;34.60;99093.78;5013372;28;20399;-49
2022/09/22 09:06:49;;;;;;;;;;;;;;;25.17;33.69;99084.53;5013370;28;19988;-50
2022/09/22 09:09:18;;;;;;;;;;;;;;;24.96;33.50;99088.56;5013230;28;19948;-50
2022/09/22 09:11:56;;;;;;;;;;;;;;;24.80;34.63;99082.56;5013065;28;20025;-49
2022/09/22 09:14:37;;;;;;;;;;;;;;;25.15;33.46;99081.34;5013249;28;20474;-50
2022/09/22 09:17:29;;;;;;;;;;;;;;;24.41;33.97;99089.59;5013096;28;19928;-50
2022/09/22 09:20:15;;;;;;;;;;;;;;;24.49;34.66;99080.16;5009633;28;19923;-50
2022/09/22 09:22:44;;;;;;;;;;;;;;;26.78;32.84;99081.94;5013001;28;19949;-49
2022/09/22 09:25:21;;;;;;;;;;;;;;;28.70;31.06;99068.28;5012906;28;19922;-50
2022/09/22 09:27:49;;;;;;;;;;;;;;;30.18;29.75;99060.41;5012815;28;19968;-50
2022/09/22 09:30:16;;;;;;;;;;;;;;;30.94;28.82;99064.34;5012535;28;19949;-50
2022/09/22 09:32:48;;;;;;;;;;;;;;;31.18;28.50;99065.66;5012947;28;20499;-49
2022/09/22 09:35:15;;;;;;;;;;;;;;;31.63;28.97;99059.63;5023416;28;20417;-50
2022/09/22 09:37:45;;;;;;;;;;;;;;;32.02;27.63;99058.38;5034725;28;19923;-49
2022/09/22 09:40:19;;;;;;;;;;;;;;;31.96;27.64;99056.97;5034675;28;20394;-50
2022/09/22 09:42:52;;;;;;;;;;;;;;;31.89;27.07;99059.41;5033412;28;19921;-51
2022/09/22 09:45:23;;;;;;;;;;;;;;;32.46;25.85;99055.19;5033518;28;19913;-50
2022/09/22 09:47:53;;;;;;;;;;;;;;;33.22;25.75;99051.06;5034572;28;20455;-50
2022/09/22 09:50:18;;;;;;;;;;;;;;;33.96;24.66;99039.94;5034636;28;20307;-50
2022/09/22 09:52:44;;;;;;;;;;;;;;;34.57;23.63;99033.38;5034399;28;19917;-48
2022/09/22 09:55:24;;;;;;;;;;;;;;;34.74;22.91;99039.63;5033102;28;19968;-50
2022/09/22 10:00:29;;;;;;;;;;;;;;;35.01;22.44;99030.53;5034357;28;19924;-50
2022/09/22 10:00:58;;;;;;;;;;;;;;;35.23;22.38;99030.22;5034173;28;20426;-50
2022/09/22 10:03:27;;;;;;;;;;;;;;;35.91;22.27;99035.13;5032904;28;20406;-49
2022/09/22 10:05:57;;;;;;;;;;;;;;;36.62;21.86;99023.88;5032865;28;19979;-49
2022/09/22 10:08:35;;;;;;;;;;;;;;;37.12;21.11;99021.91;5034059;28;19925;-49
2022/09/22 10:11:01;;;;;;;;;;;;;;;37.65;19.95;99017.50;5034075;28;20382;-50
2022/09/22 10:13:27;;;;;;;;;;;;;;;37.74;19.69;99015.25;5032772;28;19921;-50
2022/09/22 10:16:19;;;;;;;;;;;;;;;37.90;19.12;99017.78;5033987;28;19928;-51
2022/09/22 10:18:45;;;;;;;;;;;;;;;38.35;19.25;99007.63;5032018;28;20303;-50
2022/09/22 10:21:13;;;;;;;;;;;;;;;38.83;18.51;98998.59;5033851;28;19955;-51
2022/09/22 10:23:40;;;;;;;;;;;;;;;38.59;18.03;98998.06;5032557;28;19917;-50
2022/09/22 10:26:12;;;;;;;;;;;;;;;37.97;18.35;98998.66;5033841;28;19924;-50
2022/09/22 10:28:38;;;;;;;;;;;;;;;37.89;19.11;98997.00;5033593;28;20007;-51
2022/09/22 10:31:03;;;;;;;;;;;;;;;38.07;18.97;98991.72;5039694;28;19991;-50
2022/09/22 10:33:29;;;;;;;;;;;;;;;38.14;18.35;98991.81;5052329;28;19917;-51
2022/09/22 10:36:05;;;;;;;;;;;;;;;38.38;17.93;98987.69;5053526;28;20303;-50
2022/09/22 10:38:32;;;;;;;;;;;;;;;38.82;17.98;98988.78;5053548;28;19917;-50
2022/09/22 10:41:21;;;;;;;;;;;;;;;38.91;17.99;98983.75;5053477;28;20007;-49
2022/09/22 10:43:55;;;;;;;;;;;;;;;38.66;17.72;98986.34;5053379;28;20406;-50
2022/09/22 10:46:41;;;;;;;;;;;;;;;38.73;17.93;98984.41;5053330;28;19924;-49
2022/09/22 10:49:34;;;;;;;;;;;;;;;38.52;17.53;98978.81;5053291;28;19946;-50
2022/09/22 10:52:02;;;;;;;;;;;;;;;37.78;17.28;98978.50;5051940;28;19964;-50
2022/09/22 10:54:34;;;;;;;;;;;;;;;37.21;17.92;98972.41;5052756;28;20015;-50
2022/09/22 10:57:08;;;;;;;;;;;;;;;36.61;18.22;98973.09;5053096;28;20310;-50
2022/09/22 10:59:43;;;;;;;;;;;;;;;36.30;18.52;98972.22;5053047;28;19925;-48
2022/09/22 11:02:27;;;;;;;;;;;;;;;36.23;18.93;98972.09;5053023;28;19928;-50
2022/09/22 11:05:02;;;;;;;;;;;;;;;36.37;18.74;98969.59;5052907;28;19931;-50
2022/09/22 11:13:19;;;;;;;;;;;;;;;36.51;18.68;98962.78;5053259;28;19939;-50
2022/09/22 11:16:06;;;;;;;;;;;;;;;36.68;18.70;98956.78;5052761;28;20382;-50
2022/09/22 11:18:41;;;;;;;;;;;;;;;36.84;18.26;98956.63;5051549;28;20309;-50
2022/09/22 11:21:13;;;;;;;;;;;;;;;36.78;17.75;98958.09;5051407;28;19924;-50
2022/09/22 11:23:56;;;;;;;;;;;;;;;36.29;18.46;98962.44;5051475;28;19939;-50
2022/09/22 11:26:24;;;;;;;;;;;;;;;36.06;18.54;98956.97;5052564;28;19920;-50
2022/09/22 11:29:08;;;;;;;;;;;;;;;35.94;18.86;98955.19;5052470;28;19923;-50
2022/09/22 11:31:39;;;;;;;;;;;;;;;36.21;19.02;98955.28;5063989;28;19921;-48
2022/09/22 11:34:24;;;;;;;;;;;;;;;36.21;18.59;98958.00;5072524;28;19916;-48
2022/09/22 11:36:57;;;;;;;;;;;;;;;36.14;18.75;98941.44;5054401;28;20447;-48
2022/09/22 11:39:49;;;;;;;;;;;;;;;36.03;18.54;98948.69;5072450;28;19924;-49
2022/09/22 11:42:19;;;;;;;;;;;;;;;36.02;18.82;98941.66;5048507;28;19916;-49
2022/09/22 11:45:03;;;;;;;;;;;;;;;35.95;18.73;98940.38;5072275;28;19916;-50
2022/09/22 11:47:44;;;;;;;;;;;;;;;36.01;18.93;98938.13;5054346;28;19916;-50
2022/09/22 11:50:25;;;;;;;;;;;;;;;36.32;18.63;98931.66;5054224;28;19927;-49
2022/09/22 11:52:51;;;;;;;;;;;;;;;36.68;18.56;98925.94;5072464;28;19939;-50
2022/09/22 11:55:25;;;;;;;;;;;;;;;36.99;18.53;98930.25;5072260;28;20378;-49
2022/09/22 11:57:54;;;;;;;;;;;;;;;36.86;18.45;98923.44;5072177;28;20006;-51
2022/09/22 12:00:21;;;;;;;;;;;;;;;36.73;18.37;98922.88;5054177;28;19916;-51
2022/09/22 12:02:49;;;;;;;;;;;;;;;36.47;18.56;98923.66;5054122;28;19920;-50
2022/09/22 12:05:25;;;;;;;;;;;;;;;35.89;18.84;98921.94;5071864;28;19917;-49
2022/09/22 12:07:52;;;;;;;;;;;;;;;35.72;19.10;98910.34;5072019;28;19916;-51
2022/09/22 12:10:21;;;;;;;;;;;;;;;35.60;19.29;98914.00;5053968;28;20390;-49
2022/09/22 12:12:49;;;;;;;;;;;;;;;35.74;19.23;98918.94;5072286;28;20084;-51
2022/09/22 12:15:20;;;;;;;;;;;;;;;35.88;19.04;98909.41;5072048;28;19920;-49
2022/09/22 12:17:48;;;;;;;;;;;;;;;35.96;18.79;98909.19;5072045;28;20370;-50
2022/09/22 12:20:20;;;;;;;;;;;;;;;35.93;18.78;98909.91;5071964;28;19966;-50
2022/09/22 12:22:52;;;;;;;;;;;;;;;35.88;18.55;98907.50;5071983;28;20390;-50
2022/09/22 12:25:36;;;;;;;;;;;;;;;35.59;18.82;98901.47;5071951;28;20003;-49
2022/09/22 12:28:02;;;;;;;;;;;;;;;35.65;19.02;98887.53;5053898;28;19990;-48
2022/09/22 12:30:27;;;;;;;;;;;;;;;35.71;19.01;98897.03;5071562;28;20453;-47
2022/09/22 12:32:53;;;;;;;;;;;;;;;35.73;18.97;98894.72;5072167;28;19920;-48
2022/09/22 12:35:23;;;;;;;;;;;;;;;35.39;18.73;98898.00;5053863;28;20019;-48
2022/09/22 12:37:53;;;;;;;;;;;;;;;34.89;19.37;98894.25;5071795;28;20422;-50
2022/09/22 12:40:30;;;;;;;;;;;;;;;34.74;19.50;98893.16;5071835;28;19913;-48
2022/09/22 12:42:58;;;;;;;;;;;;;;;34.71;19.70;98885.72;5071758;28;19967;-48
2022/09/22 12:45:33;;;;;;;;;;;;;;;34.64;19.56;98888.25;5071744;28;19916;-49
2022/09/22 12:47:59;;;;;;;;;;;;;;;34.33;19.86;98887.19;5054043;28;19943;-49
2022/09/22 12:50:38;;;;;;;;;;;;;;;34.31;20.06;98886.75;5071648;28;19916;-50
2022/09/22 12:53:09;;;;;;;;;;;;;;;34.06;20.08;98886.13;5071712;28;19917;-50
2022/09/22 12:55:37;;;;;;;;;;;;;;;33.95;20.36;98877.69;5071715;28;19982;-48
2022/09/22 12:58:22;;;;;;;;;;;;;;;33.87;20.24;98875.13;5071586;28;19920;-49
2022/09/22 13:00:49;;;;;;;;;;;;;;;33.43;20.54;98875.97;5071615;28;19916;-50
2022/09/22 13:03:23;;;;;;;;;;;;;;;33.25;20.82;98872.75;5071610;28;19922;-50
2022/09/22 13:06:12;;;;;;;;;;;;;;;33.01;20.75;98871.69;5071476;28;20305;-50
2022/09/22 13:08:37;;;;;;;;;;;;;;;32.76;20.99;98870.16;5025498;28;19948;-50
2022/09/22 13:11:03;;;;;;;;;;;;;;;32.62;21.52;98865.13;5071523;28;19923;-50
2022/09/22 13:13:28;;;;;;;;;;;;;;;32.48;21.76;98870.91;5071556;28;20317;-49